createdAt,value
2017-09-08T00:05:31.948Z,62.8
2017-09-08T00:15:48.227Z,62.3
2017-09-08T00:26:04.397Z,62.3
2017-09-08T00:36:20.857Z,63.2
2017-09-08T00:46:36.867Z,62.5
2017-09-08T00:56:53.098Z,63.7
2017-09-08T01:07:09.272Z,63.6
2017-09-08T01:17:25.605Z,62.9
2017-09-08T01:27:41.792Z,63.1
2017-09-08T01:37:57.768Z,64.1
2017-09-08T01:48:14.030Z,64.6
2017-09-08T01:58:30.520Z,65.2
2017-09-08T02:08:46.663Z,66.7
2017-09-08T02:19:02.575Z,66.0
2017-09-08T02:29:18.818Z,67.0
2017-09-08T02:39:35.094Z,66.9
2017-09-08T02:49:51.605Z,66.6
2017-09-08T03:00:08.030Z,66.8
2017-09-08T03:10:23.983Z,67.2
2017-09-08T03:20:40.203Z,67.4
2017-09-08T03:30:56.493Z,66.7
2017-09-08T03:41:12.588Z,68.2
2017-09-08T03:51:28.905Z,67.5
2017-09-08T04:01:44.983Z,67.3
2017-09-08T04:12:01.410Z,67.9
2017-09-08T04:22:20.830Z,68.5
2017-09-08T04:32:40.416Z,70.0
2017-09-08T04:42:56.228Z,70.8
2017-09-08T04:53:12.671Z,70.4
2017-09-08T05:03:28.867Z,70.5
2017-09-08T05:13:44.679Z,70.3
2017-09-08T05:24:01.581Z,70.0
2017-09-08T05:34:17.904Z,71.3
2017-09-08T05:45:06.493Z,70.4
2017-09-08T05:55:53.986Z,71.1
2017-09-08T06:06:08.424Z,71.1
2017-09-08T06:16:24.677Z,71.0
2017-09-08T06:26:40.750Z,71.1
2017-09-08T06:36:57.160Z,71.1
2017-09-08T06:47:13.418Z,71.5
2017-09-08T06:57:29.266Z,72.7
2017-09-08T07:07:45.676Z,71.9
2017-09-08T07:18:02.078Z,72.8
2017-09-08T07:28:18.022Z,71.7
2017-09-08T07:38:34.409Z,73.2
2017-09-08T07:48:50.664Z,73.2
2017-09-08T07:59:07.094Z,73.8
2017-09-08T08:09:23.420Z,74.4
2017-09-08T08:19:39.290Z,74.4
2017-09-08T08:29:55.694Z,75.3
2017-09-08T08:40:42.392Z,74.6
2017-09-08T08:50:58.611Z,74.3
2017-09-08T09:01:12.913Z,75.7
2017-09-08T09:11:29.081Z,74.6
2017-09-08T09:21:45.218Z,75.3
2017-09-08T09:32:31.974Z,75.1
2017-09-08T09:42:48.426Z,73.8
2017-09-08T09:53:04.494Z,73.6
2017-09-08T10:03:21.022Z,74.4
2017-09-08T10:13:37.234Z,74.2
2017-09-08T10:23:53.268Z,74.1
2017-09-08T10:34:09.638Z,73.6
2017-09-08T10:44:25.794Z,74.8
2017-09-08T10:54:42.076Z,76.0
2017-09-08T11:04:58.076Z,75.9
2017-09-08T11:15:14.356Z,76.6
2017-09-08T11:26:54.739Z,76.5
2017-09-08T11:37:11.291Z,75.9
2017-09-08T11:47:27.890Z,75.5
2017-09-08T11:57:44.251Z,74.8
2017-09-08T12:08:00.734Z,75.1
2017-09-08T12:18:17.186Z,76.1
2017-09-08T12:28:33.370Z,74.7
2017-09-08T12:38:49.627Z,76.1
2017-09-08T12:49:05.974Z,75.5
2017-09-08T12:59:22.089Z,76.5
2017-09-08T13:09:38.171Z,75.2
2017-09-08T13:19:54.461Z,75.2
2017-09-08T13:30:10.595Z,76.3
2017-09-08T13:40:26.796Z,75.0
2017-09-08T13:50:42.839Z,75.3
2017-09-08T14:01:07.196Z,74.7
2017-09-08T14:11:23.531Z,75.6
2017-09-08T14:21:39.671Z,75.1
2017-09-08T14:31:55.813Z,75.6
2017-09-08T14:42:12.103Z,75.4
2017-09-08T14:52:28.016Z,75.0
2017-09-08T15:02:44.421Z,74.9
2017-09-08T15:13:00.737Z,74.4
2017-09-08T15:23:16.785Z,75.5
2017-09-08T15:33:32.990Z,75.0
2017-09-08T15:43:49.195Z,75.7
2017-09-08T15:54:05.607Z,75.5
2017-09-08T16:04:21.698Z,74.9
2017-09-08T16:14:37.658Z,75.9
2017-09-08T16:24:54.006Z,74.6
2017-09-08T16:35:10.207Z,74.8
2017-09-08T16:45:26.111Z,75.3
2017-09-08T16:55:44.662Z,75.8
2017-09-08T17:06:00.663Z,74.8
2017-09-08T17:16:16.837Z,75.3
2017-09-08T17:26:33.090Z,75.6
2017-09-08T17:36:49.429Z,74.6
2017-09-08T17:47:05.721Z,74.3
2017-09-08T17:57:21.729Z,74.7
2017-09-08T18:07:38.267Z,75.2
2017-09-08T18:17:54.566Z,75.8
2017-09-08T18:28:11.230Z,74.9
2017-09-08T18:38:28.083Z,75.1
2017-09-08T18:49:14.706Z,75.7
2017-09-08T18:59:30.888Z,76.0
2017-09-08T19:09:48.639Z,77.3
2017-09-08T19:20:05.599Z,75.7
2017-09-08T19:30:21.767Z,76.6
2017-09-08T19:40:38.170Z,76.2
2017-09-08T19:50:55.854Z,76.3
2017-09-08T20:01:12.369Z,76.4
2017-09-08T20:11:29.128Z,75.6
2017-09-08T20:21:46.212Z,76.3
2017-09-08T20:32:03.750Z,76.8
2017-09-08T20:42:20.174Z,75.8
2017-09-08T20:52:36.448Z,76.8
2017-09-08T21:02:58.866Z,77.5
2017-09-08T21:13:14.893Z,76.2
2017-09-08T21:23:30.871Z,75.9
2017-09-08T21:33:47.139Z,75.7
2017-09-08T21:44:03.241Z,75.2
2017-09-08T21:54:19.399Z,75.3
2017-09-08T22:04:39.867Z,74.7
2017-09-08T22:14:55.831Z,74.5
2017-09-08T22:25:12.299Z,74.1
2017-09-08T22:35:28.538Z,75.1
2017-09-08T22:45:44.975Z,75.4
2017-09-08T22:56:00.683Z,74.3
2017-09-08T23:06:17.096Z,73.9
2017-09-08T23:16:33.365Z,74.1
2017-09-08T23:26:49.325Z,74.5
2017-09-08T23:37:05.554Z,73.9
2017-09-08T23:47:22.037Z,73.7
2017-09-08T23:57:38.062Z,74.2
